Vue régionale

METAR et TAF

Jeudi 06 août 2020 à 23h55

Visibilités horizontales observées à différents aéroports. Les observations (METAR) et prévisions aéronautiques (TAF) complètes sont disponibles en cliquant sur l’icône correspondante.

  • Luxemburg (ELLX)

    Taf: TAF ELLX 061700Z 0618/0724 05007KT CAVOK=

    Metar: METAR ELLX 062120Z 07005KT CAVOK 24/12 Q1021 NOSIG=

  • Spangdahlem (ETAD)

    Taf: TAF COR ETAD 062001Z 0620/0802 06004KT 9999 FEW120 QNH3014INS BECMG 0707/0708 09008KT 9999 FEW100 QNH3011INS BECMG 0717/0718 VRB04KT 9999 FEW060 QNH3012INS TX32/0715Z TN15/0704Z LAST NO AMDS AFT 0620=

    Metar: METAR ETAD 062100Z NIL=

  • Metz/Nancy (LFJL)

    Taf: TAF LFJL 061700Z 0618/0718 09008KT CAVOK=

    Metar: METAR LFJL 062130Z AUTO 08010KT CAVOK 23/13 Q1020 NOSIG=

  • Saarbrücken/Intl (EDDR)

    Taf: TAF EDDR 061700Z 0618/0718 07006KT CAVOK=

    Metar: METAR EDDR 062120Z 05003KT CAVOK 21/13 Q1020=

  • Hahn (EDFH)

    Taf: TAF EDFH 061700Z 0618/0718 12007KT CAVOK=

    Metar: METAR EDFH 062120Z 12004KT 100V160 CAVOK 22/11 Q1022=

  • Ramstein (ETAR)

    Taf: TAF ETAR 061800Z 0618/0724 VRB06KT 9999 FEW200 QNH3008INS BECMG 0709/0710 08012KT 9999 SKC QNH3015INS TEMPO 0710/0715 08012G20KT 510004 BECMG 0718/0719 VRB06KT 9999 SKC QNH3010INS TX33/0714Z TN13/0704Z=

    Metar: METAR ETAR 062056Z AUTO 00000KT 9999 CLR 17/15 A3013 RMK AO2 SLP198 T01710149 52010 FZRANO $=

  • Nancy/Ochey (LFSO)

    Taf: TAF LFSO 062000Z 0621/0721 10005KT CAVOK=

    Metar: METAR LFSO 062130Z AUTO 08005KT CAVOK 22/13 Q1020 NOSIG=

  • Liège Bierset (EBLG)

    Taf: TAF EBLG 061708Z 0618/0724 12004KT CAVOK=

    Metar: METAR EBLG 062120Z 08005KT CAVOK 26/09 Q1020 NOSIG=

  • Saint-Dizier (LFSI)

    Taf: TAF LFSI 062000Z 0621/0721 07005KT CAVOK=

    Metar: METAR LFSI 062130Z AUTO 09004KT CAVOK 22/12 Q1019=

  • Maastricht/Zuid Limburg (EHBK)

    Taf: TAF EHBK 061658Z 0618/0724 06005KT CAVOK=

    Metar: METAR EHBK 062125Z AUTO 09004KT 9999 NCD 24/09 Q1019=

  • Köln/Köln-Bonn (EDDK)

    Taf: TAF EDDK 061700Z 0618/0724 10004KT CAVOK=

    Metar: METAR EDDK 062120Z VRB02KT CAVOK 20/12 Q1020 NOSIG=

  • Charleroi (EBCI)

    Taf: TAF EBCI 061708Z 0618/0724 13004KT CAVOK=

    Metar: METAR EBCI 062120Z 10005KT CAVOK 25/10 Q1020 NOSIG=

  • Wiesbaden (ETOU)

    Taf: TAF AMD ETOU 062000Z 0620/0718 VRB06KT 9999 SKC QNH3014INS TX26/0620Z TN14/0704Z LAST NO AMDS AFT 0620=

    Metar: METAR ETOU 062056Z AUTO 04005KT 9999 CLR 24/11 A3012 RMK AO2 SLP195 T02400110 52009 $=

  • Karlsruhe/Baden-Baden (EDSB)

    Taf: TAF EDSB 061700Z 0618/0718 04008KT CAVOK BECMG 0619/0621 VRB03KT BECMG 0706/0708 02008KT=

    Metar: METAR EDSB 062120Z 04003KT CAVOK 21/14 Q1019=

  • Chalons/Vatry (LFOK)

    Taf: TAF LFOK 061700Z 0618/0718 10007KT CAVOK=

    Metar: METAR LFOK 062130Z AUTO 07007KT CAVOK 24/11 Q1019 NOSIG=

  • Frankfurt/Main (EDDF)

    Taf: TAF EDDF 061700Z 0618/0724 06004KT CAVOK=

    Metar: METAR EDDF 062120Z 36003KT CAVOK 21/12 Q1020 NOSIG=

  • Brüssel (EBBR)

    Taf: TAF EBBR 061708Z 0618/0724 13004KT CAVOK=

    Metar: METAR EBBR 062120Z 10003KT 060V120 CAVOK 24/11 Q1019 NOSIG=

  • Düsseldorf (EDDL)

    Taf: TAF EDDL 061700Z 0618/0724 07004KT CAVOK TEMPO 0703/0707 15006KT=

    Metar: METAR EDDL 062120Z 06003KT 030V090 CAVOK 22/13 Q1019 NOSIG=

  • Luxeuil (LFSX)

    Taf: TAF LFSX 062000Z 0621/0721 09005KT CAVOK=

    Metar: METAR LFSX 062130Z AUTO VRB02KT 9999 ////// 19/15 Q1019=

  • Eindhoven (EHEH)

    Taf: TAF EHEH 061712Z 0618/0724 10004KT CAVOK BECMG 0704/0706 15004KT BECMG 0714/0716 09004KT=

    Metar: METAR EHEH 062125Z AUTO 35001KT 9999 NCD 20/14 Q1019 BLU=

  • Niederrhein (EDLV)

    Taf: TAF EDLV 061700Z 0618/0718 VRB02KT CAVOK TEMPO 0708/0715 10005KT=

    Metar: METAR EDLV 062120Z VRB02KT CAVOK 23/12 Q1019=

  • Dortmund/Wickede (EDLW)

    Taf: TAF EDLW 061700Z 0618/0718 VRB03KT CAVOK BECMG 0622/0624 15005KT BECMG 0708/0711 05005KT=

    Metar: METAR EDLW 062120Z AUTO 09005KT 9999 // NCD 23/10 Q1020=

  • Stuttgart/Echterdingen (EDDS)

    Taf: TAF EDDS 061700Z 0618/0718 06006KT CAVOK BECMG 0619/0621 VRB01KT BECMG 0706/0708 06006KT=

    Metar: METAR EDDS 062120Z 32001KT CAVOK 20/14 Q1021=

  • Basel-Mühlhausen (LFSB)

    Taf: TAF LFSB 061700Z 0618/0718 02005KT CAVOK BECMG 0618/0621 14005KT PROB40 TEMPO 0622/0708 VRB02KT BECMG 0708/0711 02005KT=

    Metar: METAR LFSB 062130Z AUTO 23002KT 9999 FEW016 18/16 Q1020 NOSIG=

  • Lille (LFQQ)

    Taf: TAF LFQQ 061700Z 0618/0724 10010KT CAVOK BECMG 0620/0623 VRB02KT BECMG 0708/0711 16010KT BECMG 0716/0719 10007KT=

    Metar: METAR LFQQ 062130Z AUTO 03005KT CAVOK 24/11 Q1018 NOSIG=

  • Paris/Charles de Gaulle (LFPG)

    Taf: TAF LFPG 061700Z 0618/0724 12005KT CAVOK TX37/0715Z TN21/0705Z=

    Metar: METAR LFPG 062130Z 11008KT CAVOK 28/10 Q1018 NOSIG=

  • Paderborn/Lippstadt (EDLP)

    Taf: TAF AMD EDLP 062050Z 0620/0718 CNL=

    Metar: METAR EDLP NIL=

  • Paris/Le Bourget (LFPB)

    Taf: TAF LFPB 061700Z 0618/0718 12005KT CAVOK=

    Metar: METAR LFPB 062130Z AUTO 07005KT CAVOK 25/10 Q1017 NOSIG=

  • Rotterdam (EHRD)

    Taf: TAF EHRD 061639Z 0618/0724 06005KT CAVOK BECMG 0700/0703 13006KT PROB30 0712/0718 34008KT BECMG 0718/0721 08005KT=

    Metar: METAR EHRD 062125Z AUTO 05004KT 9999 FEW015CB 20/17 Q1019 NOSIG=

  • Zürich/Kloten (LSZH)

    Taf: TAF LSZH 062025Z 0621/0803 VRB02KT CAVOK TX30/0715Z TN12/0704Z PROB40 0702/0706 7000 MIFG NSC TEMPO 0708/0719 05005KT=

    Metar: METAR LSZH 062120Z 30003KT CAVOK 18/15 Q1021 NOSIG=

  • Oostende/Intl (EBOS)

    Taf: TAF EBOS 061708Z 0618/0724 06008KT CAVOK=

    Metar: METAR EBOS 062120Z 07008KT CAVOK 20/16 Q1019 NOSIG=

  • Paris/Orly (LFPO)

    Taf: TAF LFPO 061700Z 0618/0724 VRB03KT CAVOK BECMG 0706/0709 11004KT=

    Metar: METAR LFPO 062130Z 12003KT CAVOK 26/10 Q1018 NOSIG=

  • Beauvais (LFOB)

    Taf: TAF LFOB 061700Z 0618/0718 10005KT CAVOK BECMG 0619/0621 34010KT BECMG 0622/0624 VRB02KT BECMG 0708/0711 12010KT=

    Metar: METAR LFOB 062130Z AUTO 00000KT CAVOK 22/08 Q1018 NOSIG=

  • Münster/Intl (EDDG)

    Taf: TAF EDDG 061700Z 0618/0718 VRB02KT CAVOK BECMG 0708/0711 07005KT=

    Metar: METAR EDDG 062120Z 08003KT 030V120 CAVOK 21/13 Q1020 NOSIG=

  • Illesheim (ETIK)

    Taf: TAF ETIK 061405Z 0614/0720 09009KT 9999 SCT070 QNH3017INS BECMG 0619/0620 VRB06KT 9999 SKC QNH3020INS TEMPO 0700/0704 4800 BR BECMG 0711/0712 09010KT 9999 FEW045 SCT060 QNH3018INS TX31/0714Z TN15/0705Z=

    Metar: METAR ETIK 062056Z AUTO 00000KT 9999 CLR 19/15 A3017 RMK AO2 SLP206 T01910154 52012 $=

  • Duebendorf (LSMD)

    Taf: TAF LSMD 061625Z 0617/0723 05004KT CAVOK TEMPO 0702/0705 5000 MIFG NSC PROB30 TEMPO 0703/0705 2500 BCFG=

    Metar: METAR LSMD 062120Z AUTO 00000KT 9999NDV NCD 18/14 Q1021 RMK=

  • Villacoublay (LFPV)

    Taf: TAF LFPV 062000Z 0621/0721 11005KT CAVOK=

    Metar: METAR LFPV 062130Z AUTO 11005KT CAVOK 27/09 Q1018 NOSIG=

  • Payerne (LSMP)

    Taf: TAF LSMP 061625Z 0617/0723 VRB03KT CAVOK=

    Metar: METAR LSMP 062120Z AUTO VRB02KT 9999NDV NCD 18/14 Q1020 RMK=

  • Amsterdam/Schipol (EHAM)

    Taf: TAF EHAM 061651Z 0618/0724 06005KT CAVOK BECMG 0700/0703 13006KT PROB30 0712/0718 34008KT BECMG 0718/0721 08005KT=

    Metar: METAR EHAM 062125Z 05006KT CAVOK 21/17 Q1019 NOSIG=

  • Emmen (LSME)

    Taf: TAF LSME 061625Z 0617/0723 VRB03KT CAVOK TEMPO 0702/0705 6000 MIFG NSC PROB30 TEMPO 0703/0705 3000 BCFG=

    Metar: METAR LSME 062120Z AUTO 00000KT 9999NDV ////// 19/15 Q1021 RMK MIS=

  • Friedrichshafen (EDNY)

    Taf: TAF EDNY 061700Z 0618/0718 03005KT CAVOK BECMG 0708/0710 23005KT BECMG 0716/0718 03005KT=

    Metar: METAR EDNY 062120Z AUTO 03004KT 330V070 9999 // NCD 19/15 Q1021=

  • Alpnach (LSMA)

    Taf: TAF LSMA 061625Z 0617/0723 06005KT CAVOK=

    Metar: METAR LSMA 062120Z AUTO VRB01KT 9999NDV NCD 17/15 Q1021 RMK=

  • Meiringen (LSMM)

    Taf: TAF LSMM 061625Z 0617/0723 VRB04KT CAVOK TEMPO 0702/0705 6000 MIFG NSC=

    Metar: METAR LSMM 062120Z AUTO /////KT ////NDV // NCD ///// Q1021 RMK MIS=

  • Nürnberg (EDDN)

    Taf: TAF EDDN 061700Z 0618/0718 12004KT CAVOK=

    Metar: METAR EDDN 062120Z 10003KT CAVOK 20/13 Q1021=

  • Rouen (LFOP)

    Taf: TAF AMD LFOP 062001Z 0620/0718 CNL=

    Metar: METAR LFOP 062130Z AUTO 04007KT CAVOK 24/13 Q1018=

  • Evreux (LFOE)

    Taf: TAF LFOE 062000Z 0621/0721 13005KT CAVOK=

    Metar: METAR LFOE 062130Z AUTO 09006KT CAVOK 26/08 Q1017 NOSIG=

  • Erfurt/Bindersleben (EDDE)

    Taf: TAF EDDE 061700Z 0618/0718 06005KT CAVOK BECMG 0618/0620 21004KT BECMG 0707/0709 07006KT=

    Metar: METAR EDDE 062120Z VRB02KT CAVOK 23/07 Q1022=